Time;durP1;ratioP1;P1;durP2;ratioP2;P2;SDS_P1;SDS_P2;PMS_P1;PMS_P2;Temp;Humidity;BMP_temperature;BMP_pressure;BME280_temperature;BME280_humidity;BME280_pressure;Samples;Min_cycle;Max_cycle;Signal;HPM_P1;HPM_P2
2024/01/07 00:01:59;;;;;;;0.40;0.40;;;5.70;99.90;;;;;;5053602;28;20184;-78
2024/01/07 00:04:24;;;;;;;0.50;0.50;;;5.70;99.90;;;;;;5053649;28;20198;-78
2024/01/07 00:06:50;;;;;;;0.60;0.60;;;5.70;99.90;;;;;;5055994;28;20269;-76
2024/01/07 00:09:16;;;;;;;0.60;0.60;;;5.60;99.90;;;;;;5071845;28;20522;-76
2024/01/07 00:11:42;;;;;;;0.33;0.33;;;5.60;99.90;;;;;;5059717;28;20207;-79
2024/01/07 00:14:08;;;;;;;0.40;0.40;;;5.70;99.90;;;;;;5051629;28;20268;-78
2024/01/07 00:16:34;;;;;;;0.60;0.60;;;5.70;99.90;;;;;;5053741;28;20207;-77
2024/01/07 00:19:00;;;;;;;0.57;0.57;;;5.80;99.90;;;;;;5054160;28;20177;-81
2024/01/07 00:21:26;;;;;;;0.63;0.40;;;5.70;99.90;;;;;;5053980;28;20183;-79
2024/01/07 00:23:51;;;;;;;0.43;0.43;;;5.70;99.90;;;;;;5054376;28;20538;-78
2024/01/07 00:26:17;;;;;;;0.60;0.60;;;5.80;99.90;;;;;;5053238;28;20182;-79
2024/01/07 00:28:43;;;;;;;0.50;0.50;;;5.80;99.90;;;;;;5053352;28;20559;-79
2024/01/07 00:31:11;;;;;;;0.60;0.60;;;5.80;99.90;;;;;;5054486;28;20177;-79
2024/01/07 00:33:37;;;;;;;0.40;0.40;;;5.80;99.90;;;;;;5053181;28;20239;-78
2024/01/07 00:36:03;;;;;;;0.40;0.40;;;5.70;99.90;;;;;;5053243;28;20219;-79
2024/01/07 00:38:29;;;;;;;0.70;0.70;;;5.90;99.90;;;;;;5053549;28;20177;-79
2024/01/07 00:40:54;;;;;;;0.70;0.70;;;5.90;99.90;;;;;;5060621;28;20182;-77
2024/01/07 00:43:20;;;;;;;0.50;0.50;;;5.90;99.90;;;;;;5064261;28;20182;-78
2024/01/07 00:45:46;;;;;;;0.70;0.70;;;5.90;99.90;;;;;;5057205;28;20230;-76
2024/01/07 00:48:12;;;;;;;0.60;0.60;;;5.90;99.90;;;;;;5058445;28;20662;-77
2024/01/07 00:50:38;;;;;;;0.60;0.60;;;5.90;99.90;;;;;;5067062;28;20173;-78
2024/01/07 00:53:03;;;;;;;0.40;0.40;;;5.90;99.90;;;;;;5057531;28;20259;-79
2024/01/07 00:55:29;;;;;;;0.47;0.47;;;5.90;99.90;;;;;;5055902;28;20180;-78
2024/01/07 00:57:55;;;;;;;0.40;0.40;;;5.90;99.90;;;;;;5056917;28;20588;-77
2024/01/07 01:00:21;;;;;;;0.60;0.60;;;5.90;99.90;;;;;;5077465;28;20272;-77
2024/01/07 01:02:47;;;;;;;0.73;0.73;;;5.90;99.90;;;;;;5058670;28;20168;-80
2024/01/07 01:05:13;;;;;;;0.60;0.60;;;5.90;99.90;;;;;;5056865;28;20184;-80
2024/01/07 01:07:39;;;;;;;0.40;0.40;;;5.90;99.90;;;;;;5055966;28;20255;-77
2024/01/07 01:10:05;;;;;;;0.40;0.40;;;6.00;99.90;;;;;;5056094;28;20220;-79
2024/01/07 01:12:31;;;;;;;0.40;0.40;;;6.00;99.90;;;;;;5056101;28;20179;-80
2024/01/07 01:14:56;;;;;;;0.37;0.37;;;6.00;99.90;;;;;;5056473;28;20250;-82
2024/01/07 01:17:22;;;;;;;0.40;0.40;;;6.00;99.90;;;;;;5056351;28;20233;-82
2024/01/07 01:19:48;;;;;;;0.50;0.50;;;6.00;99.90;;;;;;5055501;28;20204;-78
2024/01/07 01:22:14;;;;;;;0.60;0.60;;;6.00;99.90;;;;;;5055791;28;20227;-77
2024/01/07 01:24:39;;;;;;;0.40;0.40;;;6.00;99.90;;;;;;5058597;28;20211;-79
2024/01/07 01:27:05;;;;;;;0.60;0.60;;;6.00;99.90;;;;;;5057369;28;20259;-79
2024/01/07 01:29:31;;;;;;;0.47;0.47;;;6.00;99.90;;;;;;5058255;28;20173;-76
2024/01/07 01:31:57;;;;;;;0.50;0.50;;;6.00;99.90;;;;;;5060329;28;20579;-79
2024/01/07 01:34:22;;;;;;;0.60;0.60;;;6.00;99.90;;;;;;5056847;28;20201;-78
2024/01/07 01:36:49;;;;;;;0.50;0.50;;;6.00;99.90;;;;;;5056095;28;20212;-80
2024/01/07 01:39:15;;;;;;;0.50;0.50;;;6.00;99.90;;;;;;5057159;28;20177;-79
2024/01/07 01:41:41;;;;;;;0.40;0.40;;;6.10;99.90;;;;;;5056048;28;20179;-80
2024/01/07 01:44:07;;;;;;;0.50;0.50;;;6.00;99.90;;;;;;5055670;28;20169;-80
2024/01/07 01:46:33;;;;;;;0.50;0.50;;;6.10;99.90;;;;;;5055321;28;20185;-78
2024/01/07 01:48:59;;;;;;;0.50;0.50;;;6.10;99.90;;;;;;5055571;28;20614;-78
2024/01/07 01:51:26;;;;;;;0.53;0.53;;;6.10;99.90;;;;;;5055746;28;20166;-79
2024/01/07 01:53:51;;;;;;;0.60;0.60;;;6.10;99.90;;;;;;5056042;28;20266;-78
2024/01/07 01:56:20;;;;;;;0.60;0.60;;;6.10;99.90;;;;;;5056682;28;20275;-78
2024/01/07 01:58:47;;;;;;;0.50;0.50;;;6.10;99.90;;;;;;5066915;28;20165;-77
2024/01/07 02:01:13;;;;;;;0.60;0.60;;;6.10;99.90;;;;;;5072402;28;20197;-77
2024/01/07 02:03:39;;;;;;;0.40;0.40;;;6.10;99.90;;;;;;5055250;28;20176;-77
2024/01/07 02:06:05;;;;;;;0.47;0.47;;;6.10;99.90;;;;;;5056547;28;20181;-75
2024/01/07 02:08:32;;;;;;;0.50;0.50;;;6.10;99.90;;;;;;5060457;28;20194;-76
2024/01/07 02:10:58;;;;;;;0.50;0.50;;;6.10;99.90;;;;;;5055716;28;20245;-76
2024/01/07 02:13:23;;;;;;;0.53;0.53;;;6.20;99.90;;;;;;5054957;28;20703;-78
2024/01/07 02:15:49;;;;;;;0.50;0.50;;;6.20;99.90;;;;;;5055056;28;20265;-75
2024/01/07 02:18:15;;;;;;;1.20;0.60;;;6.20;99.90;;;;;;5060653;28;20212;-77
2024/01/07 02:20:41;;;;;;;0.60;0.60;;;6.20;99.90;;;;;;5065648;28;20181;-78
2024/01/07 02:23:06;;;;;;;0.40;0.40;;;6.20;99.90;;;;;;5056019;28;20535;-79
2024/01/07 02:25:36;;;;;;;0.43;0.43;;;6.20;99.90;;;;;;5067817;28;20178;-78
2024/01/07 02:28:02;;;;;;;0.60;0.60;;;7.90;99.90;;;;;;5070395;28;20173;-79
2024/01/07 02:30:28;;;;;;;0.33;0.33;;;6.20;99.90;;;;;;5052662;28;20176;-80
2024/01/07 02:32:54;;;;;;;0.60;0.60;;;6.20;99.90;;;;;;5055184;28;20202;-80
2024/01/07 02:35:19;;;;;;;0.40;0.40;;;6.20;99.90;;;;;;5052582;28;20570;-80
2024/01/07 02:37:45;;;;;;;0.50;0.50;;;6.20;99.90;;;;;;5053770;28;20205;-80
2024/01/07 02:40:11;;;;;;;0.47;0.47;;;6.10;99.90;;;;;;5052867;28;20721;-78
2024/01/07 02:42:37;;;;;;;0.50;0.50;;;6.20;99.90;;;;;;5054294;28;20178;-79
2024/01/07 02:45:03;;;;;;;0.60;0.60;;;6.20;99.90;;;;;;5054058;28;20379;-78
2024/01/07 02:47:29;;;;;;;0.40;0.40;;;6.20;99.90;;;;;;5054464;28;20244;-78
2024/01/07 02:49:54;;;;;;;0.50;0.50;;;6.20;99.90;;;;;;5052970;28;20643;-78
2024/01/07 02:52:20;;;;;;;0.40;0.40;;;6.20;99.90;;;;;;5053787;28;20177;-78
2024/01/07 02:54:46;;;;;;;0.50;0.50;;;6.20;99.90;;;;;;5055007;28;20177;-78
2024/01/07 02:57:11;;;;;;;0.60;0.60;;;6.20;99.90;;;;;;5070260;28;20203;-78
2024/01/07 02:59:37;;;;;;;0.50;0.50;;;6.20;99.90;;;;;;5059582;28;20223;-80
2024/01/07 03:02:03;;;;;;;0.50;0.50;;;6.20;99.90;;;;;;5053590;28;20209;-77
2024/01/07 03:04:29;;;;;;;0.40;0.40;;;6.20;99.90;;;;;;5053999;28;20675;-79
2024/01/07 03:06:54;;;;;;;0.57;0.57;;;6.20;99.90;;;;;;5053965;28;20263;-77
2024/01/07 03:09:20;;;;;;;0.40;0.40;;;6.20;99.90;;;;;;5054360;28;20305;-77
2024/01/07 03:11:46;;;;;;;0.43;0.43;;;6.20;99.90;;;;;;5054984;28;20174;-78
2024/01/07 03:14:12;;;;;;;0.63;0.63;;;6.20;99.90;;;;;;5062765;28;20182;-77
2024/01/07 03:16:38;;;;;;;0.60;0.60;;;6.20;99.90;;;;;;5065318;28;20206;-79
2024/01/07 03:19:04;;;;;;;0.40;0.40;;;6.20;99.90;;;;;;5055534;28;20197;-76
2024/01/07 03:21:30;;;;;;;0.57;0.57;;;6.20;99.90;;;;;;5052993;28;20174;-78
2024/01/07 03:23:56;;;;;;;0.53;0.53;;;6.20;99.90;;;;;;5053833;28;20169;-78
2024/01/07 03:26:21;;;;;;;0.43;0.43;;;6.20;99.90;;;;;;5067904;28;20234;-80
2024/01/07 03:28:47;;;;;;;0.40;0.40;;;6.20;99.90;;;;;;5053833;28;20166;-78
2024/01/07 03:31:15;;;;;;;0.50;0.50;;;6.20;99.90;;;;;;5053171;28;20181;-76
2024/01/07 03:33:42;;;;;;;0.57;0.57;;;6.10;99.90;;;;;;5053184;28;20177;-78
2024/01/07 03:36:13;;;;;;;0.43;0.43;;;6.10;99.90;;;;;;5054062;28;20690;-79
2024/01/07 03:38:39;;;;;;;0.57;0.50;;;6.10;99.90;;;;;;5054592;28;20165;-79
2024/01/07 03:41:06;;;;;;;0.60;0.60;;;6.10;99.90;;;;;;5053667;28;20173;-81
2024/01/07 03:43:32;;;;;;;0.43;0.43;;;6.10;99.90;;;;;;5053051;28;20173;-78
2024/01/07 03:45:58;;;;;;;0.60;0.60;;;6.10;99.90;;;;;;5054381;28;20298;-77
2024/01/07 03:48:24;;;;;;;0.67;0.67;;;6.10;99.90;;;;;;5057460;28;20232;-79
2024/01/07 03:50:50;;;;;;;0.50;0.50;;;6.10;99.90;;;;;;5069612;28;20278;-77
2024/01/07 03:53:16;;;;;;;0.43;0.43;;;6.10;99.90;;;;;;5054710;28;20626;-77
2024/01/07 03:55:42;;;;;;;0.50;0.50;;;6.10;99.90;;;;;;5056727;28;20182;-82
2024/01/07 03:58:08;;;;;;;0.53;0.53;;;6.00;99.90;;;;;;5055108;28;20177;-79
2024/01/07 04:00:34;;;;;;;0.43;0.43;;;6.00;99.90;;;;;;5054664;28;20605;-79
2024/01/07 04:03:00;;;;;;;0.37;0.37;;;6.00;99.90;;;;;;5054163;28;20632;-78
2024/01/07 04:05:26;;;;;;;0.67;0.67;;;6.00;99.90;;;;;;5053206;28;20173;-79
2024/01/07 04:07:52;;;;;;;0.70;0.70;;;5.90;99.90;;;;;;5052908;28;20176;-79
2024/01/07 04:10:18;;;;;;;1.33;0.60;;;5.90;99.90;;;;;;5052140;28;20311;-76
2024/01/07 04:12:44;;;;;;;0.47;0.47;;;5.90;99.90;;;;;;5052883;28;20160;-77
2024/01/07 04:15:11;;;;;;;0.60;0.60;;;5.90;99.90;;;;;;5054913;28;20696;-76
2024/01/07 04:17:37;;;;;;;0.43;0.43;;;5.90;99.90;;;;;;5056640;28;20196;-78
2024/01/07 04:20:03;;;;;;;0.40;0.40;;;5.90;99.90;;;;;;5056455;28;20640;-77
2024/01/07 04:22:29;;;;;;;0.50;0.50;;;5.90;99.90;;;;;;5057028;28;20172;-75
2024/01/07 04:24:55;;;;;;;0.43;0.43;;;5.90;99.90;;;;;;5061397;28;20254;-76
2024/01/07 04:27:21;;;;;;;0.53;0.53;;;5.90;99.90;;;;;;5056907;28;20175;-80
2024/01/07 04:29:47;;;;;;;0.40;0.40;;;5.90;99.90;;;;;;5055520;28;20176;-79
2024/01/07 04:32:12;;;;;;;0.50;0.50;;;5.80;99.90;;;;;;5058860;28;20179;-79
2024/01/07 04:34:38;;;;;;;0.50;0.50;;;5.80;99.90;;;;;;5070736;28;20232;-79
2024/01/07 04:37:04;;;;;;;0.50;0.50;;;5.80;99.90;;;;;;5056247;28;20736;-79
2024/01/07 04:39:30;;;;;;;0.70;0.70;;;5.80;99.90;;;;;;5056477;28;20168;-76
2024/01/07 04:41:55;;;;;;;0.47;0.47;;;5.80;99.90;;;;;;5059983;28;20176;-77
2024/01/07 04:44:21;;;;;;;0.57;0.57;;;5.80;99.90;;;;;;5068121;28;20187;-79
2024/01/07 04:46:49;;;;;;;0.40;0.40;;;5.80;99.90;;;;;;5057092;28;20178;-77
2024/01/07 04:49:14;;;;;;;0.50;0.50;;;5.70;99.90;;;;;;5056029;28;20255;-78
2024/01/07 04:51:40;;;;;;;0.50;0.50;;;5.70;99.90;;;;;;5056748;28;20295;-75
2024/01/07 04:54:06;;;;;;;0.60;0.60;;;5.70;99.90;;;;;;5070464;28;20160;-78
2024/01/07 04:56:32;;;;;;;0.50;0.50;;;5.70;99.90;;;;;;5073467;28;20268;-80
2024/01/07 04:58:58;;;;;;;0.50;0.50;;;5.60;99.90;;;;;;5052491;28;20582;-77
2024/01/07 05:01:24;;;;;;;0.43;0.43;;;5.60;99.90;;;;;;5037480;28;20191;-78
2024/01/07 05:03:49;;;;;;;0.50;0.50;;;5.50;99.90;;;;;;5051167;28;20216;-80
2024/01/07 05:06:15;;;;;;;0.47;0.47;;;5.60;99.90;;;;;;5056457;28;20180;-78
2024/01/07 05:08:41;;;;;;;0.60;0.60;;;5.50;99.90;;;;;;5055501;28;20229;-76
2024/01/07 05:11:07;;;;;;;0.63;0.63;;;5.50;99.90;;;;;;5054490;28;20170;-79
2024/01/07 05:13:34;;;;;;;0.70;0.70;;;5.50;99.90;;;;;;5055155;28;20194;-78
2024/01/07 05:16:00;;;;;;;0.40;0.40;;;5.50;99.90;;;;;;5053738;28;20681;-81
2024/01/07 05:18:26;;;;;;;0.40;0.40;;;5.50;99.90;;;;;;5054149;28;20193;-78
2024/01/07 05:20:52;;;;;;;0.40;0.40;;;5.50;99.90;;;;;;5054515;28;20637;-80
2024/01/07 05:23:18;;;;;;;0.50;0.50;;;5.40;99.90;;;;;;5053867;28;20647;-79
2024/01/07 05:25:45;;;;;;;0.70;0.70;;;5.40;99.90;;;;;;5054233;28;20176;-79
2024/01/07 05:28:11;;;;;;;0.50;0.50;;;5.40;99.90;;;;;;5054253;28;20653;-76
2024/01/07 05:30:38;;;;;;;0.50;0.50;;;5.40;99.90;;;;;;5054558;28;20192;-76
2024/01/07 05:33:04;;;;;;;0.50;0.50;;;5.40;99.90;;;;;;5057004;28;20620;-76
2024/01/07 05:35:30;;;;;;;0.60;0.60;;;5.40;99.90;;;;;;5062847;28;20202;-78
2024/01/07 05:37:56;;;;;;;0.30;0.30;;;5.30;99.90;;;;;;5064307;28;20256;-79
2024/01/07 05:40:23;;;;;;;0.60;0.60;;;5.30;99.90;;;;;;5063934;28;20509;-79
2024/01/07 05:42:49;;;;;;;0.50;0.50;;;5.40;99.90;;;;;;5056981;28;20180;-78
2024/01/07 05:45:15;;;;;;;0.47;0.47;;;5.30;99.90;;;;;;5056118;28;20166;-78
2024/01/07 05:47:40;;;;;;;0.70;0.70;;;5.30;99.90;;;;;;5054833;28;20177;-77
2024/01/07 05:50:07;;;;;;;0.40;0.40;;;5.30;99.90;;;;;;5059387;28;20196;-79
2024/01/07 05:52:33;;;;;;;0.50;0.50;;;5.30;99.90;;;;;;5057119;28;20172;-81
2024/01/07 05:55:05;;;;;;;0.63;0.63;;;5.30;99.90;;;;;;5055249;28;20712;-77
2024/01/07 05:57:31;;;;;;;0.50;0.50;;;5.20;99.90;;;;;;5053671;28;20222;-77
2024/01/07 05:59:57;;;;;;;0.57;0.57;;;5.20;99.90;;;;;;5054234;28;20176;-77
2024/01/07 06:02:24;;;;;;;0.73;0.73;;;5.30;99.90;;;;;;5066308;28;20210;-78
2024/01/07 06:04:50;;;;;;;0.63;0.63;;;5.30;99.90;;;;;;5055199;28;20179;-78
2024/01/07 06:07:15;;;;;;;0.60;0.60;;;5.30;99.90;;;;;;5055792;28;20171;-76
2024/01/07 06:09:41;;;;;;;0.70;0.70;;;5.30;99.90;;;;;;4985672;28;1965068;-77
2024/01/07 06:12:07;;;;;;;0.50;0.50;;;5.30;99.90;;;;;;5055345;28;20472;-77
2024/01/07 06:14:33;;;;;;;0.60;0.60;;;5.20;99.90;;;;;;5056053;28;20684;-76
2024/01/07 06:16:59;;;;;;;0.53;0.53;;;5.20;99.90;;;;;;5065585;28;20280;-78
2024/01/07 06:19:24;;;;;;;0.40;0.40;;;5.20;99.90;;;;;;5063529;28;20179;-78
2024/01/07 06:21:50;;;;;;;0.53;0.50;;;5.20;99.90;;;;;;5054519;28;20181;-79
2024/01/07 06:24:16;;;;;;;0.43;0.43;;;5.20;99.90;;;;;;5054799;28;20175;-79
2024/01/07 06:26:42;;;;;;;0.67;0.67;;;5.20;99.90;;;;;;5054588;28;20177;-79
2024/01/07 06:29:09;;;;;;;0.60;0.60;;;5.20;99.90;;;;;;5054358;28;20207;-78
2024/01/07 06:31:35;;;;;;;0.70;0.70;;;5.20;99.90;;;;;;5053744;28;20267;-79
2024/01/07 06:34:01;;;;;;;0.50;0.50;;;5.20;99.90;;;;;;5054050;28;20259;-79
2024/01/07 06:36:26;;;;;;;0.50;0.50;;;5.10;99.90;;;;;;5053807;28;20214;-79
2024/01/07 06:38:53;;;;;;;0.47;0.47;;;5.10;99.90;;;;;;5057210;28;20167;-79
2024/01/07 06:41:19;;;;;;;0.60;0.60;;;5.10;99.90;;;;;;5059992;28;20183;-79
2024/01/07 06:43:44;;;;;;;0.40;0.40;;;5.10;99.90;;;;;;5054355;28;20178;-77
2024/01/07 06:46:10;;;;;;;0.57;0.57;;;5.00;99.90;;;;;;5053710;28;20173;-78
2024/01/07 06:48:36;;;;;;;0.63;0.63;;;5.00;99.90;;;;;;5054009;28;20179;-77
2024/01/07 06:51:01;;;;;;;0.50;0.50;;;5.00;99.90;;;;;;5069693;28;20169;-79
2024/01/07 06:53:27;;;;;;;0.43;0.43;;;5.00;99.90;;;;;;5063341;28;20192;-78
2024/01/07 06:55:53;;;;;;;0.47;0.47;;;5.00;99.90;;;;;;5054556;28;20174;-78
2024/01/07 06:58:19;;;;;;;0.70;0.70;;;5.00;99.90;;;;;;5053631;28;20263;-78
2024/01/07 07:00:44;;;;;;;0.57;0.57;;;5.00;99.90;;;;;;5062041;28;20180;-78
2024/01/07 07:03:11;;;;;;;0.60;0.60;;;5.00;99.90;;;;;;5075358;28;20162;-77
2024/01/07 07:05:37;;;;;;;0.60;0.60;;;5.00;99.90;;;;;;5070779;28;20203;-80
2024/01/07 07:08:03;;;;;;;0.50;0.50;;;5.00;99.90;;;;;;5056194;28;20476;-79
2024/01/07 07:10:28;;;;;;;0.50;0.50;;;5.00;99.90;;;;;;5063951;28;20278;-77
2024/01/07 07:12:54;;;;;;;0.80;0.80;;;5.00;99.90;;;;;;5070162;28;20176;-77
2024/01/07 07:15:20;;;;;;;0.50;0.50;;;5.00;99.90;;;;;;5055071;28;20794;-79
2024/01/07 07:17:46;;;;;;;0.60;0.60;;;4.90;99.90;;;;;;5053837;28;20261;-77
2024/01/07 07:20:11;;;;;;;0.47;0.47;;;5.00;99.90;;;;;;5062317;28;20199;-80
2024/01/07 07:22:37;;;;;;;0.40;0.40;;;5.00;99.90;;;;;;5053772;28;20210;-79
2024/01/07 07:25:03;;;;;;;0.60;0.60;;;5.00;99.90;;;;;;5053643;28;20591;-77
2024/01/07 07:27:29;;;;;;;1.17;0.60;;;5.00;99.90;;;;;;5055164;28;20250;-75
2024/01/07 07:29:55;;;;;;;0.50;0.50;;;5.00;99.90;;;;;;5055417;28;20176;-78
2024/01/07 07:32:21;;;;;;;0.60;0.60;;;5.00;99.90;;;;;;5056665;28;20214;-78
2024/01/07 07:34:47;;;;;;;0.70;0.70;;;5.00;99.90;;;;;;5054572;28;20172;-78
2024/01/07 07:37:13;;;;;;;0.53;0.53;;;5.00;99.90;;;;;;5054233;28;20204;-77
2024/01/07 07:39:39;;;;;;;0.50;0.50;;;5.00;99.90;;;;;;5053809;28;20586;-79
2024/01/07 07:42:05;;;;;;;0.60;0.60;;;5.00;99.90;;;;;;5053893;28;20183;-78
2024/01/07 07:44:30;;;;;;;0.60;0.60;;;5.00;99.90;;;;;;5054083;28;20176;-78
2024/01/07 07:46:56;;;;;;;0.63;0.63;;;5.00;99.90;;;;;;5054395;28;20232;-79
2024/01/07 07:49:22;;;;;;;0.70;0.60;;;4.60;99.90;;;;;;5053917;28;20173;-80
2024/01/07 07:51:48;;;;;;;0.33;0.33;;;5.00;99.90;;;;;;5053872;28;20176;-79
2024/01/07 07:54:13;;;;;;;0.80;0.80;;;5.00;99.90;;;;;;5055595;28;20169;-79
2024/01/07 07:56:39;;;;;;;0.70;0.70;;;5.00;99.90;;;;;;5054687;28;20235;-79
2024/01/07 07:59:05;;;;;;;0.60;0.60;;;5.00;99.90;;;;;;5053988;28;20153;-78
2024/01/07 08:01:31;;;;;;;0.60;0.60;;;5.00;99.90;;;;;;5052570;28;20984;-76
2024/01/07 08:03:56;;;;;;;0.70;0.70;;;5.00;99.90;;;;;;5054265;28;20179;-77
2024/01/07 08:06:22;;;;;;;0.67;0.67;;;5.00;99.90;;;;;;5057031;28;20206;-76
2024/01/07 08:08:48;;;;;;;0.60;0.60;;;5.10;99.90;;;;;;5052686;28;20228;-77
2024/01/07 08:11:14;;;;;;;0.50;0.50;;;5.10;99.90;;;;;;5054270;28;20169;-75
2024/01/07 08:13:39;;;;;;;0.70;0.70;;;5.10;99.90;;;;;;5062030;28;20187;-77
2024/01/07 08:16:06;;;;;;;0.50;0.50;;;5.10;99.90;;;;;;5071858;28;20196;-76
2024/01/07 08:18:32;;;;;;;0.60;0.60;;;5.10;99.90;;;;;;5062373;28;20542;-76
2024/01/07 08:20:58;;;;;;;0.50;0.50;;;5.10;99.90;;;;;;5053915;28;20171;-78
2024/01/07 08:23:25;;;;;;;0.70;0.70;;;5.10;99.90;;;;;;5054211;28;20175;-79
2024/01/07 08:25:53;;;;;;;0.50;0.50;;;5.10;99.90;;;;;;5055623;28;20164;-79
2024/01/07 08:28:20;;;;;;;0.43;0.43;;;5.10;99.90;;;;;;5053895;28;20168;-79
2024/01/07 08:30:46;;;;;;;0.70;0.70;;;5.10;99.90;;;;;;5053661;28;20663;-79
2024/01/07 08:33:12;;;;;;;0.70;0.63;;;5.10;99.90;;;;;;5052671;28;20654;-78
2024/01/07 08:35:38;;;;;;;1.07;0.43;;;5.10;99.90;;;;;;5053937;28;20160;-77
2024/01/07 08:38:04;;;;;;;0.67;0.67;;;5.10;99.90;;;;;;5064457;28;20285;-79
2024/01/07 08:40:31;;;;;;;0.57;0.57;;;5.20;99.90;;;;;;5054039;28;20662;-78
2024/01/07 08:42:56;;;;;;;0.63;0.63;;;5.10;99.90;;;;;;5053444;28;20204;-79
2024/01/07 08:45:22;;;;;;;1.07;0.93;;;5.10;99.90;;;;;;5054638;28;20180;-79
2024/01/07 08:47:48;;;;;;;0.70;0.70;;;5.10;99.90;;;;;;5059008;28;20185;-79
2024/01/07 08:50:14;;;;;;;0.80;0.80;;;5.10;99.90;;;;;;5069959;28;20227;-77
2024/01/07 08:52:41;;;;;;;1.27;0.70;;;5.20;99.90;;;;;;5057884;28;20190;-79
2024/01/07 08:55:09;;;;;;;1.47;1.10;;;5.10;99.90;;;;;;5051889;28;20531;-77
2024/01/07 08:57:36;;;;;;;0.93;0.93;;;5.10;99.90;;;;;;5033769;28;20199;-78
2024/01/07 09:00:02;;;;;;;1.13;1.13;;;5.20;99.90;;;;;;5033743;28;20260;-76
2024/01/07 09:02:28;;;;;;;0.67;0.67;;;5.20;99.90;;;;;;5056244;28;20200;-78
2024/01/07 09:04:54;;;;;;;0.40;0.40;;;5.20;99.90;;;;;;5055981;28;20176;-78
2024/01/07 09:07:19;;;;;;;2.27;1.00;;;5.20;99.90;;;;;;5055135;28;20558;-78
2024/01/07 09:09:45;;;;;;;0.80;0.80;;;5.10;99.90;;;;;;5055921;28;20705;-79
2024/01/07 09:12:11;;;;;;;0.60;0.60;;;5.10;99.90;;;;;;5056515;28;20627;-81
2024/01/07 09:14:40;;;;;;;0.60;0.60;;;5.20;99.90;;;;;;5056584;28;20217;-80
2024/01/07 09:17:06;;;;;;;0.60;0.60;;;5.10;99.90;;;;;;5056002;28;20212;-77
2024/01/07 09:19:33;;;;;;;0.70;0.70;;;5.10;99.90;;;;;;5059437;28;20178;-78
2024/01/07 09:21:58;;;;;;;0.60;0.60;;;5.10;99.90;;;;;;5073542;28;20215;-77
2024/01/07 09:24:24;;;;;;;0.63;0.63;;;5.20;99.90;;;;;;5059346;28;20206;-78
2024/01/07 09:26:51;;;;;;;0.90;0.90;;;5.20;99.90;;;;;;5056685;28;20267;-79
2024/01/07 09:29:27;;;;;;;;;;;;;;;;;;;;;
2024/01/07 09:31:57;;;;;;;0.70;0.70;;;5.20;99.90;;;;;;5054690;28;20189;-77
2024/01/07 09:34:23;;;;;;;0.80;0.70;;;5.30;99.90;;;;;;5056289;28;20250;-77
2024/01/07 09:36:49;;;;;;;0.50;0.50;;;5.30;99.90;;;;;;5055394;28;20613;-76
2024/01/07 09:39:14;;;;;;;0.60;0.60;;;4.90;99.90;;;;;;5056056;28;20172;-78
2024/01/07 09:41:41;;;;;;;0.40;0.40;;;5.30;99.90;;;;;;5057583;28;20185;-79
2024/01/07 09:44:08;;;;;;;0.50;0.50;;;5.30;99.90;;;;;;5055433;28;20260;-77
2024/01/07 09:46:37;;;;;;;0.67;0.67;;;5.30;99.90;;;;;;5056591;28;20195;-79
2024/01/07 09:49:03;;;;;;;0.50;0.50;;;5.30;99.90;;;;;;5056492;28;20232;-78
2024/01/07 09:51:33;;;;;;;0.80;0.80;;;5.30;99.90;;;;;;5055093;28;20256;-77
2024/01/07 09:54:06;;;;;;;0.90;0.90;;;5.40;99.90;;;;;;5057699;28;20168;-79
2024/01/07 09:56:41;;;;;;;0.83;0.83;;;5.30;99.90;;;;;;5065192;28;20190;-77
2024/01/07 09:59:08;;;;;;;0.80;0.80;;;5.40;99.90;;;;;;5058809;28;20243;-78
2024/01/07 10:01:35;;;;;;;2.00;0.90;;;5.40;99.90;;;;;;5056531;28;20203;-78
2024/01/07 10:04:01;;;;;;;0.90;0.90;;;5.40;99.90;;;;;;5056556;28;20175;-77
2024/01/07 10:06:27;;;;;;;0.97;0.97;;;5.50;99.90;;;;;;5061341;28;20186;-76
2024/01/07 10:08:53;;;;;;;0.77;0.77;;;5.50;99.90;;;;;;5066204;28;20234;-76
2024/01/07 10:11:20;;;;;;;0.53;0.53;;;5.50;99.90;;;;;;5071078;28;20176;-76
2024/01/07 10:13:51;;;;;;;0.90;0.90;;;5.50;99.90;;;;;;5055299;28;20181;-77
2024/01/07 10:16:17;;;;;;;1.07;0.97;;;5.50;99.90;;;;;;5056418;28;20192;-79
2024/01/07 10:18:43;;;;;;;0.80;0.80;;;5.50;99.90;;;;;;5055506;28;20547;-79
2024/01/07 10:21:09;;;;;;;0.87;0.87;;;5.50;99.90;;;;;;5056390;28;20193;-82
2024/01/07 10:23:35;;;;;;;0.80;0.80;;;5.50;99.90;;;;;;5055758;28;20172;-77
2024/01/07 10:26:02;;;;;;;0.60;0.60;;;5.50;99.90;;;;;;5058782;28;20186;-77
2024/01/07 10:28:28;;;;;;;0.80;0.80;;;5.50;99.90;;;;;;5063580;28;20176;-79
2024/01/07 10:30:54;;;;;;;0.80;0.80;;;5.50;99.90;;;;;;5055674;28;20520;-78
2024/01/07 10:33:20;;;;;;;0.90;0.90;;;5.60;99.90;;;;;;5055711;28;20215;-78
2024/01/07 10:36:03;;;;;;;0.97;0.97;;;5.60;99.90;;;;;;5055455;28;20512;-80
2024/01/07 10:38:30;;;;;;;1.13;1.13;;;5.60;99.90;;;;;;5055608;28;20175;-79
2024/01/07 10:40:58;;;;;;;0.97;0.97;;;5.60;99.90;;;;;;5055996;28;20168;-79
2024/01/07 10:43:26;;;;;;;1.10;1.10;;;5.60;99.90;;;;;;5055719;28;20176;-77
2024/01/07 10:45:53;;;;;;;1.00;1.00;;;5.60;99.90;;;;;;5053877;28;20218;-77
2024/01/07 10:48:20;;;;;;;0.60;0.60;;;5.60;99.90;;;;;;5056008;28;20578;-78
2024/01/07 10:50:48;;;;;;;0.80;0.80;;;5.60;99.90;;;;;;5075706;28;20160;-78
2024/01/07 10:53:20;;;;;;;0.80;0.80;;;5.60;99.90;;;;;;5057568;28;20180;-80
2024/01/07 10:55:57;;;;;;;1.00;1.00;;;5.60;99.90;;;;;;5055086;28;20517;-78
2024/01/07 10:58:24;;;;;;;0.77;0.77;;;5.70;99.90;;;;;;5055037;28;20217;-79
2024/01/07 11:00:49;;;;;;;0.90;0.90;;;5.70;99.90;;;;;;5054850;28;20183;-78
2024/01/07 11:03:43;;;;;;;0.80;0.80;;;5.70;99.90;;;;;;5053935;28;20192;-77
2024/01/07 11:06:21;;;;;;;0.60;0.60;;;5.70;99.90;;;;;;5053874;28;20157;-78
2024/01/07 11:09:03;;;;;;;1.37;0.90;;;5.70;99.90;;;;;;5053876;28;20227;-76
2024/01/07 11:11:37;;;;;;;0.83;0.83;;;5.70;99.90;;;;;;5054447;28;20177;-77
2024/01/07 11:14:03;;;;;;;0.57;0.57;;;5.80;99.90;;;;;;5063547;28;20199;-80
2024/01/07 11:16:43;;;;;;;0.97;0.97;;;5.80;99.90;;;;;;5062997;28;20214;-77
2024/01/07 11:19:09;;;;;;;0.83;0.83;;;5.80;99.90;;;;;;5053776;28;20187;-78
2024/01/07 11:21:35;;;;;;;0.93;0.93;;;5.90;99.90;;;;;;5054321;28;20276;-77
2024/01/07 11:24:01;;;;;;;0.70;0.70;;;5.90;99.90;;;;;;5052524;28;20212;-77
2024/01/07 11:26:30;;;;;;;0.93;0.93;;;5.90;99.90;;;;;;5036011;28;20208;-78
2024/01/07 11:28:57;;;;;;;1.00;1.00;;;5.90;99.90;;;;;;5053737;28;20179;-77
2024/01/07 11:31:41;;;;;;;1.30;1.30;;;6.00;99.90;;;;;;5053830;28;20686;-79
2024/01/07 11:34:07;;;;;;;1.40;1.30;;;6.00;99.90;;;;;;5054059;28;20668;-79
2024/01/07 11:36:36;;;;;;;1.80;1.70;;;6.00;99.90;;;;;;5053523;28;20559;-77
2024/01/07 11:39:03;;;;;;;1.00;1.00;;;6.00;99.90;;;;;;5058370;28;20187;-79
2024/01/07 11:41:33;;;;;;;1.13;1.13;;;6.00;99.90;;;;;;5054519;28;20247;-78
2024/01/07 11:44:00;;;;;;;0.93;0.93;;;6.00;99.90;;;;;;5054081;28;20201;-78
2024/01/07 11:46:26;;;;;;;1.27;1.27;;;6.00;99.90;;;;;;5053198;28;20186;-77
2024/01/07 11:48:58;;;;;;;0.83;0.83;;;6.10;99.90;;;;;;5054110;28;20169;-79
2024/01/07 11:51:30;;;;;;;1.17;1.17;;;6.10;99.90;;;;;;5055056;28;20166;-78
2024/01/07 11:53:57;;;;;;;1.37;1.27;;;6.10;99.90;;;;;;5053633;28;20180;-80
2024/01/07 11:56:25;;;;;;;1.43;1.43;;;6.10;99.90;;;;;;5053284;28;20327;-79
2024/01/07 11:58:51;;;;;;;1.30;1.30;;;6.10;99.90;;;;;;5033961;28;20182;-78
2024/01/07 12:01:18;;;;;;;1.20;1.20;;;6.20;99.90;;;;;;5035307;28;20178;-77
2024/01/07 12:03:47;;;;;;;0.93;0.90;;;6.20;99.90;;;;;;5064102;28;20197;-76
2024/01/07 12:06:13;;;;;;;1.57;1.47;;;6.20;99.90;;;;;;5072053;28;20178;-77
2024/01/07 12:08:41;;;;;;;1.17;1.17;;;6.20;99.90;;;;;;5060920;28;20315;-76
2024/01/07 12:11:07;;;;;;;0.93;0.90;;;6.20;99.90;;;;;;5053567;28;20177;-79
2024/01/07 12:13:33;;;;;;;1.03;1.03;;;6.20;99.90;;;;;;5053044;28;20272;-76
2024/01/07 12:15:59;;;;;;;1.27;1.27;;;6.20;99.90;;;;;;5052979;28;20199;-77
2024/01/07 12:18:26;;;;;;;1.67;1.60;;;6.20;99.90;;;;;;5052759;28;20218;-75
2024/01/07 12:20:59;;;;;;;1.57;1.47;;;6.30;99.90;;;;;;5053170;28;20680;-75
2024/01/07 12:23:25;;;;;;;1.13;1.13;;;6.20;99.90;;;;;;5053310;28;20172;-78
2024/01/07 12:25:58;;;;;;;1.50;1.40;;;6.20;99.90;;;;;;5053303;28;20180;-79
2024/01/07 12:28:24;;;;;;;1.57;1.47;;;6.20;99.90;;;;;;5053134;28;20265;-80
2024/01/07 12:30:50;;;;;;;1.43;1.43;;;6.20;99.90;;;;;;5052117;28;20188;-77
2024/01/07 12:33:22;;;;;;;1.50;1.40;;;6.20;99.90;;;;;;5059833;28;20190;-77
2024/01/07 12:35:48;;;;;;;1.73;1.33;;;6.20;99.90;;;;;;5058480;28;20621;-77
2024/01/07 12:38:14;;;;;;;1.23;1.20;;;6.20;99.90;;;;;;5057483;28;20227;-76
2024/01/07 12:40:40;;;;;;;1.30;1.17;;;6.20;99.90;;;;;;5057244;28;20503;-77
2024/01/07 12:43:09;;;;;;;1.20;1.20;;;6.20;99.90;;;;;;5056412;28;20201;-78
2024/01/07 12:45:35;;;;;;;1.80;1.60;;;6.20;99.90;;;;;;5057228;28;20217;-78
2024/01/07 12:48:02;;;;;;;3.10;1.70;;;6.10;99.90;;;;;;5055451;28;20212;-77
2024/01/07 12:50:30;;;;;;;2.17;1.63;;;6.20;99.90;;;;;;5058313;28;20242;-75
2024/01/07 12:52:56;;;;;;;1.50;1.40;;;6.20;99.90;;;;;;5067265;28;20542;-77
2024/01/07 12:55:25;;;;;;;1.60;1.50;;;6.10;99.90;;;;;;5057025;28;20210;-78